createdAt,value
2019-01-31T00:03:12.293Z,1.50
2019-01-31T00:06:11.864Z,1.10
2019-01-31T00:09:31.743Z,1.23
2019-01-31T00:12:16.632Z,1.40
2019-01-31T00:15:05.866Z,1.23
2019-01-31T00:18:31.273Z,1.73
2019-01-31T00:21:25.978Z,0.90
2019-01-31T00:24:31.521Z,1.43
2019-01-31T00:27:28.781Z,1.37
2019-01-31T00:30:51.038Z,1.10
2019-01-31T00:34:22.304Z,1.30
2019-01-31T00:37:15.256Z,1.60
2019-01-31T00:40:14.025Z,2.00
2019-01-31T00:43:08.143Z,2.00
2019-01-31T00:46:21.028Z,2.80
2019-01-31T00:49:24.793Z,2.00
2019-01-31T00:52:26.379Z,2.80
2019-01-31T00:55:09.326Z,2.60
2019-01-31T00:57:51.789Z,2.30
2019-01-31T01:01:05.741Z,2.13
2019-01-31T01:03:45.073Z,2.30
2019-01-31T01:06:34.994Z,3.30
2019-01-31T01:09:24.854Z,3.00
2019-01-31T01:12:05.387Z,2.40
2019-01-31T01:15:24.649Z,1.77
2019-01-31T01:18:28.041Z,2.33
2019-01-31T01:21:07.300Z,2.27
2019-01-31T01:24:01.025Z,2.57
2019-01-31T01:26:52.708Z,2.37
2019-01-31T01:29:35.590Z,1.77
2019-01-31T01:32:46.993Z,1.93
2019-01-31T01:35:39.909Z,1.23
2019-01-31T01:38:27.833Z,1.50
2019-01-31T01:41:01.357Z,0.73
2019-01-31T01:44:25.780Z,0.80
2019-01-31T01:47:14.186Z,0.97
2019-01-31T01:49:47.789Z,0.73
2019-01-31T01:52:37.488Z,0.70
2019-01-31T01:55:47.664Z,0.83
2019-01-31T01:58:57.197Z,1.00
2019-01-31T02:01:39.417Z,1.50
2019-01-31T02:04:52.241Z,1.20
2019-01-31T02:07:56.661Z,1.43
2019-01-31T02:11:08.514Z,1.23
2019-01-31T02:14:16.213Z,1.73
2019-01-31T02:16:53.193Z,0.97
2019-01-31T02:19:59.610Z,1.77
2019-01-31T02:23:12.896Z,1.50
2019-01-31T02:26:16.757Z,1.37
2019-01-31T02:29:36.285Z,1.27
2019-01-31T02:32:58.937Z,1.30
2019-01-31T02:35:44.134Z,1.37
2019-01-31T02:38:42.070Z,1.40
2019-01-31T02:41:53.685Z,1.30
2019-01-31T02:44:40.837Z,1.47
2019-01-31T02:47:46.354Z,1.10
2019-01-31T02:50:52.981Z,1.30
2019-01-31T02:53:51.805Z,1.30
2019-01-31T02:56:49.310Z,1.57
2019-01-31T02:59:58.606Z,1.30
2019-01-31T03:03:05.327Z,1.07
2019-01-31T03:06:25.425Z,1.23
2019-01-31T03:09:15.869Z,1.23
2019-01-31T03:12:27.932Z,0.90
2019-01-31T03:15:05.721Z,1.17
2019-01-31T03:18:15.793Z,1.17
2019-01-31T03:21:16.258Z,1.82
2019-01-31T03:24:20.701Z,1.00
2019-01-31T03:27:45.681Z,1.30
2019-01-31T03:31:05.007Z,2.10
2019-01-31T03:34:14.251Z,1.33
2019-01-31T03:37:39.757Z,2.07
2019-01-31T03:40:38.601Z,1.57
2019-01-31T03:43:33.031Z,1.77
2019-01-31T03:46:39.946Z,2.03
2019-01-31T03:49:47.613Z,1.73
2019-01-31T03:53:07.225Z,1.40
2019-01-31T03:56:01.372Z,1.33
2019-01-31T03:59:14.666Z,2.02
2019-01-31T04:02:04.179Z,1.57
2019-01-31T04:04:50.395Z,1.50
2019-01-31T04:07:18.810Z,1.90
2019-01-31T04:09:47.201Z,2.00
2019-01-31T04:12:16.039Z,1.90
2019-01-31T04:14:44.354Z,1.50
2019-01-31T04:17:13.144Z,1.67
2019-01-31T04:19:41.933Z,2.20
2019-01-31T04:22:10.403Z,1.60
2019-01-31T04:24:39.041Z,1.23
2019-01-31T04:27:07.848Z,1.10
2019-01-31T04:29:36.256Z,1.40
2019-01-31T04:32:04.853Z,1.13
2019-01-31T04:34:33.497Z,1.17
2019-01-31T04:37:02.281Z,1.47
2019-01-31T04:39:30.866Z,1.50
2019-01-31T04:41:59.329Z,1.30
2019-01-31T04:44:28.294Z,1.80
2019-01-31T04:46:57.157Z,1.40
2019-01-31T04:49:25.549Z,1.03
2019-01-31T04:51:53.931Z,1.47
2019-01-31T04:54:22.393Z,1.37
2019-01-31T04:56:50.866Z,1.70
2019-01-31T04:59:19.176Z,1.70
2019-01-31T05:01:47.546Z,1.60
2019-01-31T05:04:15.939Z,1.20
2019-01-31T05:06:44.311Z,1.50
2019-01-31T05:09:12.792Z,1.17
2019-01-31T05:11:41.178Z,1.03
2019-01-31T05:14:09.545Z,1.20
2019-01-31T05:16:37.941Z,1.47
2019-01-31T05:19:06.313Z,2.47
2019-01-31T05:21:34.726Z,1.30
2019-01-31T05:24:03.292Z,1.40
2019-01-31T05:26:31.657Z,1.60
2019-01-31T05:29:00.429Z,1.77
2019-01-31T05:31:28.733Z,1.60
2019-01-31T05:33:57.263Z,1.70
2019-01-31T05:36:25.652Z,1.87
2019-01-31T05:38:54.060Z,1.70
2019-01-31T05:41:22.529Z,1.67
2019-01-31T05:43:50.993Z,1.87
2019-01-31T05:46:19.336Z,1.60
2019-01-31T05:48:47.786Z,1.93
2019-01-31T05:51:16.093Z,2.00
2019-01-31T05:53:44.554Z,2.00
2019-01-31T05:56:12.881Z,3.40
2019-01-31T05:58:41.241Z,2.75
2019-01-31T06:01:09.672Z,3.80
2019-01-31T06:03:38.053Z,3.20
2019-01-31T06:06:06.833Z,2.57
2019-01-31T06:08:35.225Z,3.00
2019-01-31T06:11:07.632Z,2.60
2019-01-31T06:13:33.869Z,3.03
2019-01-31T06:16:02.305Z,2.33
2019-01-31T06:18:30.810Z,2.70
2019-01-31T06:20:59.272Z,3.00
2019-01-31T06:23:27.573Z,3.40
2019-01-31T06:25:56.034Z,3.07
2019-01-31T06:28:25.677Z,3.13
2019-01-31T06:30:54.148Z,3.03
2019-01-31T06:33:22.607Z,3.10
2019-01-31T06:35:51.859Z,4.20
2019-01-31T06:38:20.165Z,4.30
2019-01-31T06:40:49.552Z,3.30
2019-01-31T06:43:19.204Z,3.20
2019-01-31T06:45:47.509Z,3.00
2019-01-31T06:48:15.987Z,3.43
2019-01-31T06:50:44.581Z,3.70
2019-01-31T06:53:14.424Z,3.00
2019-01-31T06:55:44.293Z,3.40
2019-01-31T06:58:14.433Z,3.33
2019-01-31T07:00:42.556Z,3.20
2019-01-31T07:03:10.955Z,2.83
2019-01-31T07:05:39.377Z,4.30
2019-01-31T07:08:10.252Z,3.93
2019-01-31T07:10:40.880Z,3.27
2019-01-31T07:13:08.996Z,3.23
2019-01-31T07:15:38.731Z,3.40
2019-01-31T07:18:06.976Z,2.20
2019-01-31T07:20:35.113Z,2.90
2019-01-31T07:23:03.331Z,2.33
2019-01-31T07:25:31.535Z,4.27
2019-01-31T07:28:19.620Z,3.17
2019-01-31T07:30:47.828Z,3.40
2019-01-31T07:33:16.005Z,8.17
2019-01-31T07:35:44.665Z,8.80
2019-01-31T07:38:12.978Z,3.63
2019-01-31T07:40:41.414Z,4.33
2019-01-31T07:43:09.810Z,4.23
2019-01-31T07:45:38.377Z,3.30
2019-01-31T07:48:06.868Z,3.30
2019-01-31T07:50:35.426Z,3.30
2019-01-31T07:53:03.936Z,2.43
2019-01-31T07:55:34.052Z,2.37
2019-01-31T07:58:02.449Z,2.83
2019-01-31T08:00:30.900Z,2.23
2019-01-31T08:02:59.598Z,3.03
2019-01-31T08:05:28.210Z,2.27
2019-01-31T08:07:57.253Z,2.77
2019-01-31T08:10:28.559Z,2.40
2019-01-31T08:12:57.687Z,2.17
2019-01-31T08:15:26.256Z,2.57
2019-01-31T08:17:54.828Z,2.60
2019-01-31T08:20:23.229Z,2.30
2019-01-31T08:22:51.657Z,2.52
2019-01-31T08:25:20.707Z,2.77
2019-01-31T08:27:49.754Z,2.80
2019-01-31T08:30:23.837Z,2.20
2019-01-31T08:32:52.858Z,3.10
2019-01-31T08:35:21.491Z,2.93
2019-01-31T08:37:49.974Z,2.67
2019-01-31T08:40:18.281Z,2.53
2019-01-31T08:42:47.012Z,3.60
2019-01-31T08:45:16.057Z,2.03
2019-01-31T08:47:44.459Z,2.33
2019-01-31T08:50:16.106Z,3.10
2019-01-31T08:52:44.597Z,2.60
2019-01-31T08:55:13.292Z,2.40
2019-01-31T08:57:41.993Z,2.20
2019-01-31T09:00:14.727Z,2.37
2019-01-31T09:02:43.230Z,1.90
2019-01-31T09:05:12.064Z,1.70
2019-01-31T09:07:40.794Z,2.30
2019-01-31T09:10:13.522Z,2.03
2019-01-31T09:12:42.176Z,1.60
2019-01-31T09:15:12.447Z,2.10
2019-01-31T09:17:41.170Z,1.60
2019-01-31T09:20:11.309Z,1.97
2019-01-31T09:23:08.404Z,2.17
2019-01-31T09:26:10.805Z,1.50
2019-01-31T09:29:14.597Z,1.40
2019-01-31T09:32:25.847Z,1.30
2019-01-31T09:35:25.330Z,1.23
2019-01-31T09:38:37.221Z,1.20
2019-01-31T09:41:54.873Z,1.70
2019-01-31T09:45:04.865Z,1.50
2019-01-31T09:47:44.306Z,2.93
2019-01-31T09:51:15.785Z,3.57
2019-01-31T09:55:33.121Z,1.30
2019-01-31T09:59:04.849Z,1.60
2019-01-31T10:02:13.273Z,1.53
2019-01-31T10:05:16.850Z,1.30
2019-01-31T10:07:56.889Z,1.60
2019-01-31T10:11:11.391Z,1.53
2019-01-31T10:14:17.798Z,1.90
2019-01-31T10:17:14.307Z,1.90
2019-01-31T10:20:20.284Z,2.20
2019-01-31T10:23:34.945Z,1.90
2019-01-31T10:26:45.121Z,1.50
2019-01-31T10:29:55.411Z,1.70
2019-01-31T10:33:12.748Z,1.40
2019-01-31T10:36:21.828Z,1.97
2019-01-31T10:39:23.153Z,1.77
2019-01-31T10:42:22.880Z,1.60
2019-01-31T10:45:43.652Z,1.90
2019-01-31T10:48:47.264Z,2.07
2019-01-31T10:51:57.819Z,1.20
2019-01-31T10:54:51.182Z,1.90
2019-01-31T10:58:00.387Z,1.60
2019-01-31T11:01:03.887Z,1.97
2019-01-31T11:04:11.180Z,1.50
2019-01-31T11:07:21.710Z,2.30
2019-01-31T11:10:38.183Z,1.80
2019-01-31T11:13:57.323Z,1.80
2019-01-31T11:16:47.551Z,1.70
2019-01-31T11:19:53.067Z,1.63
2019-01-31T11:23:02.371Z,1.43
2019-01-31T11:26:20.614Z,1.50
2019-01-31T11:29:27.939Z,1.60
2019-01-31T11:32:23.970Z,2.00
2019-01-31T11:35:25.135Z,1.40
2019-01-31T11:38:41.256Z,1.97
2019-01-31T11:41:50.802Z,2.00
2019-01-31T11:45:17.242Z,2.37
2019-01-31T11:48:29.510Z,2.13
2019-01-31T11:51:54.239Z,2.07
2019-01-31T11:55:01.767Z,2.07
2019-01-31T11:58:25.990Z,2.00
2019-01-31T12:00:54.666Z,2.10
2019-01-31T12:03:24.736Z,2.45
2019-01-31T12:05:53.459Z,2.27
2019-01-31T12:08:22.716Z,1.80
2019-01-31T12:10:51.393Z,2.17
2019-01-31T12:13:23.545Z,2.00
2019-01-31T12:15:50.633Z,1.97
2019-01-31T12:18:19.584Z,1.40
2019-01-31T12:20:48.924Z,2.33
2019-01-31T12:23:18.823Z,1.37
2019-01-31T12:25:47.613Z,1.70
2019-01-31T12:28:16.254Z,1.83
2019-01-31T12:30:44.889Z,2.20
2019-01-31T12:33:13.453Z,2.73
2019-01-31T12:35:42.411Z,2.70
2019-01-31T12:38:12.459Z,1.90
2019-01-31T12:40:41.731Z,1.80
2019-01-31T12:43:10.725Z,2.00
2019-01-31T12:45:39.457Z,2.10
2019-01-31T12:48:08.407Z,2.53
2019-01-31T12:50:37.128Z,1.63
2019-01-31T12:53:05.838Z,2.53
2019-01-31T12:55:34.449Z,2.27
2019-01-31T12:58:03.907Z,2.03
2019-01-31T13:00:34.333Z,2.33
2019-01-31T13:03:03.245Z,2.70
2019-01-31T13:05:33.184Z,1.73
2019-01-31T13:08:02.173Z,1.83
2019-01-31T13:10:32.264Z,2.30
2019-01-31T13:13:02.679Z,2.17
2019-01-31T13:15:31.606Z,3.07
2019-01-31T13:18:00.406Z,2.83
2019-01-31T13:20:29.274Z,2.63
2019-01-31T13:22:58.989Z,1.90
2019-01-31T13:25:28.481Z,2.43
2019-01-31T13:27:57.426Z,2.42
2019-01-31T13:30:26.311Z,2.60
2019-01-31T13:32:56.614Z,2.70
2019-01-31T13:35:25.765Z,2.43
2019-01-31T13:37:54.663Z,2.87
2019-01-31T13:40:25.325Z,2.30
2019-01-31T13:42:54.695Z,2.63
2019-01-31T13:45:31.569Z,3.13
2019-01-31T13:48:03.512Z,2.57
2019-01-31T13:50:32.781Z,2.30
2019-01-31T13:53:05.701Z,3.40
2019-01-31T13:55:36.407Z,5.37
2019-01-31T13:58:05.573Z,4.80
2019-01-31T14:00:34.748Z,3.87
2019-01-31T14:03:03.600Z,3.37
2019-01-31T14:05:34.153Z,3.83
2019-01-31T14:08:04.789Z,3.40
2019-01-31T14:10:37.215Z,2.90
2019-01-31T14:13:05.385Z,3.43
2019-01-31T14:15:35.633Z,3.17
2019-01-31T14:18:05.006Z,3.00
2019-01-31T14:20:34.245Z,2.77
2019-01-31T14:23:03.973Z,2.07
2019-01-31T14:25:32.789Z,2.40
2019-01-31T14:28:02.105Z,2.70
2019-01-31T14:30:33.394Z,2.70
2019-01-31T14:33:04.379Z,2.70
2019-01-31T14:35:33.761Z,2.43
2019-01-31T14:38:02.559Z,3.27
2019-01-31T14:40:31.725Z,3.83
2019-01-31T14:43:00.784Z,3.07
2019-01-31T14:45:30.120Z,3.03
2019-01-31T14:47:59.175Z,2.23
2019-01-31T14:50:32.201Z,2.70
2019-01-31T14:53:02.633Z,3.23
2019-01-31T14:55:31.240Z,4.03
2019-01-31T14:58:00.317Z,3.80
2019-01-31T15:00:30.260Z,4.70
2019-01-31T15:02:58.801Z,5.10
2019-01-31T15:05:27.323Z,4.00
2019-01-31T15:07:55.974Z,3.17
2019-01-31T15:10:26.473Z,3.70
2019-01-31T15:12:55.655Z,2.60
2019-01-31T15:15:24.555Z,2.90
2019-01-31T15:17:53.340Z,2.67
2019-01-31T15:20:37.538Z,3.27
2019-01-31T15:23:02.192Z,3.70
2019-01-31T15:25:30.943Z,3.57
2019-01-31T15:28:01.780Z,2.53
2019-01-31T15:30:32.117Z,2.30
2019-01-31T15:33:01.821Z,2.30
2019-01-31T15:35:31.131Z,2.10
2019-01-31T15:37:59.824Z,2.23
2019-01-31T15:40:34.733Z,1.97
2019-01-31T15:43:05.109Z,2.33
2019-01-31T15:45:34.005Z,2.70
2019-01-31T15:48:03.856Z,2.00
2019-01-31T15:50:32.900Z,2.30
2019-01-31T15:53:01.656Z,2.70
2019-01-31T15:55:30.448Z,2.80
2019-01-31T15:57:59.241Z,3.50
2019-01-31T16:00:36.683Z,3.50
2019-01-31T16:03:06.645Z,2.90
2019-01-31T16:05:35.754Z,3.70
2019-01-31T16:08:05.302Z,3.70
2019-01-31T16:10:34.188Z,2.83
2019-01-31T16:13:03.520Z,2.73
2019-01-31T16:15:32.530Z,3.10
2019-01-31T16:18:01.694Z,2.97
2019-01-31T16:20:30.788Z,3.03
2019-01-31T16:22:59.735Z,3.10
2019-01-31T16:25:28.777Z,2.83
2019-01-31T16:27:57.609Z,3.27
2019-01-31T16:30:26.649Z,2.90
2019-01-31T16:32:55.543Z,2.57
2019-01-31T16:35:26.485Z,4.07
2019-01-31T16:37:55.733Z,3.00
2019-01-31T16:40:24.609Z,3.30
2019-01-31T16:42:53.726Z,3.80
2019-01-31T16:45:22.441Z,3.00
2019-01-31T16:47:51.141Z,3.63
2019-01-31T16:50:20.425Z,4.13
2019-01-31T16:52:49.216Z,3.47
2019-01-31T16:55:19.250Z,3.47
2019-01-31T16:57:48.855Z,3.53
2019-01-31T17:00:24.124Z,4.13
2019-01-31T17:02:52.973Z,3.87
2019-01-31T17:05:24.469Z,3.40
2019-01-31T17:07:53.600Z,4.03
2019-01-31T17:10:22.616Z,3.47
2019-01-31T17:12:51.842Z,3.03
2019-01-31T17:15:20.888Z,3.17
2019-01-31T17:17:49.808Z,2.63
2019-01-31T17:20:24.053Z,3.70
2019-01-31T17:22:52.838Z,4.20
2019-01-31T17:25:21.584Z,3.80
2019-01-31T17:27:50.406Z,4.65
2019-01-31T17:30:21.269Z,3.80
2019-01-31T17:32:50.205Z,3.70
2019-01-31T17:35:19.157Z,3.30
2019-01-31T17:37:47.985Z,3.20
2019-01-31T17:40:20.124Z,4.50
2019-01-31T17:42:48.826Z,3.73
2019-01-31T17:45:29.541Z,5.20
2019-01-31T17:47:49.498Z,5.87
2019-01-31T17:50:18.272Z,6.00
2019-01-31T17:52:53.532Z,5.00
2019-01-31T17:55:23.069Z,5.30
2019-01-31T17:57:51.977Z,6.40
2019-01-31T18:00:29.881Z,7.37
2019-01-31T18:02:58.994Z,7.00
2019-01-31T18:05:27.816Z,7.47
2019-01-31T18:07:56.952Z,7.27
2019-01-31T18:10:25.781Z,4.20
2019-01-31T18:12:54.911Z,3.37
2019-01-31T18:15:23.942Z,2.63
2019-01-31T18:17:52.730Z,3.70
2019-01-31T18:20:21.981Z,3.33
2019-01-31T18:22:50.820Z,2.47
2019-01-31T18:25:19.904Z,3.40
2019-01-31T18:27:49.096Z,3.03
2019-01-31T18:30:25.068Z,3.30
2019-01-31T18:32:54.654Z,3.00
2019-01-31T18:35:23.632Z,3.20
2019-01-31T18:37:52.561Z,2.73
2019-01-31T18:40:26.746Z,2.37
2019-01-31T18:42:55.702Z,2.67
2019-01-31T18:45:26.181Z,2.80
2019-01-31T18:47:55.385Z,3.00
2019-01-31T18:50:26.352Z,3.40
2019-01-31T18:52:55.620Z,3.27
2019-01-31T18:55:24.865Z,2.23
2019-01-31T18:57:53.213Z,2.80
2019-01-31T19:00:28.084Z,3.43
2019-01-31T19:02:57.229Z,2.90
2019-01-31T19:05:26.314Z,2.87
2019-01-31T19:07:55.260Z,3.00
2019-01-31T19:10:24.161Z,4.00
2019-01-31T19:12:55.337Z,4.10
2019-01-31T19:15:24.473Z,3.70
2019-01-31T19:18:04.530Z,4.60
2019-01-31T19:20:27.243Z,6.00
2019-01-31T19:22:59.565Z,4.83
2019-01-31T19:25:32.179Z,6.97
2019-01-31T19:28:01.548Z,6.93
2019-01-31T19:30:32.722Z,6.30
2019-01-31T19:33:01.676Z,4.67
2019-01-31T19:35:32.001Z,5.30
2019-01-31T19:38:03.499Z,4.73
2019-01-31T19:40:34.502Z,4.13
2019-01-31T19:43:03.752Z,4.30
2019-01-31T19:45:54.655Z,4.70
2019-01-31T19:48:25.072Z,6.50
2019-01-31T19:50:54.570Z,7.00
2019-01-31T19:53:23.853Z,7.93
2019-01-31T19:55:52.473Z,11.30
2019-01-31T19:58:21.161Z,8.80
2019-01-31T20:00:50.245Z,9.07
2019-01-31T20:03:19.349Z,10.53
2019-01-31T20:05:48.332Z,11.37
2019-01-31T20:08:18.304Z,12.13
2019-01-31T20:10:47.069Z,9.33
2019-01-31T20:13:15.600Z,10.13
2019-01-31T20:15:44.738Z,13.13
2019-01-31T20:18:13.461Z,15.30
2019-01-31T20:20:42.877Z,14.20
2019-01-31T20:23:12.103Z,13.07
2019-01-31T20:25:41.563Z,14.53
2019-01-31T20:28:10.754Z,14.03
2019-01-31T20:30:39.502Z,14.03
2019-01-31T20:33:08.619Z,9.17
2019-01-31T20:35:38.326Z,9.23
2019-01-31T20:38:09.674Z,8.63
2019-01-31T20:40:40.961Z,6.17
2019-01-31T20:43:10.100Z,6.57
2019-01-31T20:45:38.730Z,6.53
2019-01-31T20:48:08.998Z,6.13
2019-01-31T20:50:40.041Z,5.67
2019-01-31T20:53:09.191Z,5.43
2019-01-31T20:55:38.204Z,5.50
2019-01-31T20:58:06.815Z,5.60
2019-01-31T21:00:41.074Z,7.03
2019-01-31T21:03:11.295Z,5.53
2019-01-31T21:05:41.577Z,6.17
2019-01-31T21:08:12.608Z,5.63
2019-01-31T21:10:42.917Z,4.60
2019-01-31T21:13:13.004Z,5.93
2019-01-31T21:15:41.940Z,4.57
2019-01-31T21:18:11.366Z,4.17
2019-01-31T21:20:40.478Z,3.60
2019-01-31T21:23:09.965Z,3.40
2019-01-31T21:25:39.065Z,3.50
2019-01-31T21:28:08.876Z,3.83
2019-01-31T21:30:39.890Z,3.33
2019-01-31T21:33:09.189Z,4.50
2019-01-31T21:35:38.448Z,4.27
2019-01-31T21:38:07.257Z,4.57
2019-01-31T21:40:37.401Z,4.27
2019-01-31T21:43:08.000Z,3.87
2019-01-31T21:45:36.920Z,4.30
2019-01-31T21:48:08.033Z,4.13
2019-01-31T21:50:36.969Z,4.03
2019-01-31T21:53:05.696Z,3.47
2019-01-31T21:55:35.362Z,3.77
2019-01-31T21:58:05.451Z,3.10
2019-01-31T22:00:34.706Z,3.83
2019-01-31T22:03:04.379Z,3.17
2019-01-31T22:05:33.197Z,3.33
2019-01-31T22:08:02.074Z,3.93
2019-01-31T22:10:30.899Z,2.27
2019-01-31T22:13:02.412Z,2.93
2019-01-31T22:15:32.163Z,3.10
2019-01-31T22:18:02.041Z,3.87
2019-01-31T22:20:31.801Z,3.40
2019-01-31T22:23:00.753Z,3.83
2019-01-31T22:25:29.689Z,3.97
2019-01-31T22:27:58.489Z,4.37
2019-01-31T22:30:34.787Z,3.90
2019-01-31T22:33:04.474Z,5.00
2019-01-31T22:35:33.608Z,4.00
2019-01-31T22:38:04.125Z,4.83
2019-01-31T22:40:32.987Z,4.47
2019-01-31T22:43:01.794Z,4.67
2019-01-31T22:45:30.326Z,4.97
2019-01-31T22:47:59.190Z,4.87
2019-01-31T22:50:27.894Z,4.57
2019-01-31T22:52:56.476Z,4.83
2019-01-31T22:55:25.329Z,3.53
2019-01-31T22:57:54.146Z,4.30
2019-01-31T23:00:55.628Z,4.00
2019-01-31T23:03:24.965Z,3.93
2019-01-31T23:05:53.565Z,4.87
2019-01-31T23:08:22.497Z,4.23
2019-01-31T23:10:51.180Z,3.47
2019-01-31T23:13:19.978Z,3.33
2019-01-31T23:15:49.084Z,4.87
2019-01-31T23:18:17.703Z,3.50
2019-01-31T23:20:47.195Z,4.17
2019-01-31T23:23:16.073Z,3.77
2019-01-31T23:25:44.640Z,3.00
2019-01-31T23:28:13.562Z,4.85
2019-01-31T23:30:42.500Z,4.10
2019-01-31T23:33:11.000Z,4.07
2019-01-31T23:35:39.573Z,4.43
2019-01-31T23:38:08.418Z,3.83
2019-01-31T23:40:37.678Z,4.17
2019-01-31T23:43:06.418Z,4.20
2019-01-31T23:45:35.077Z,3.27
2019-01-31T23:48:04.367Z,3.30
2019-01-31T23:50:33.294Z,4.20
2019-01-31T23:53:02.098Z,3.43
2019-01-31T23:55:31.323Z,4.30
2019-01-31T23:57:59.981Z,3.87
